Amherst, New Hampshire
Current Conditions -  °F | °C
As of 6:51 AM on Tuesday 27 Jan 2015 (Local Time) from KASH Reporting Station
Moderate Snow Moderate Snow  
Wind Chill: -2°   Ceiling: NA
Heat Index: 14°   Visibility: NA
Dew Point: 11°   Wind: 16mph
Humidity: 88%   Direction: 350°N
Pressure: 29.68"   Gusts: 24mph
Location:  42.86°N, 71.63°W
Report Text: KASH 271151Z AUTO 35014G21KT SN M10/M12 A2968 RMK AO2 FZRANO 55031 60000 T11001116 11100 21100 P0000 PK WND 36029/1103 SLP312 $
Loading
Personal Weather Stations






























Interactive Weather Map New forecast layout! Learn more

10-Day Weather Forecast

Advertisements
Track Severe Weather on mobile